createdAt,value
2017-08-12T00:00:48.299Z,0
2017-08-12T00:01:47.973Z,0
2017-08-12T00:02:48.265Z,0
2017-08-12T00:03:48.228Z,0
2017-08-12T00:04:48.210Z,0
2017-08-12T00:05:48.190Z,0
2017-08-12T00:06:48.169Z,0
2017-08-12T00:07:47.551Z,0
2017-08-12T00:08:47.869Z,0
2017-08-12T00:09:48.151Z,0
2017-08-12T00:10:48.092Z,0
2017-08-12T00:11:47.761Z,0
2017-08-12T00:12:47.749Z,0
2017-08-12T00:13:48.019Z,0
2017-08-12T00:14:48.000Z,0
2017-08-12T00:15:47.743Z,0
2017-08-12T00:16:47.964Z,0
2017-08-12T00:17:47.934Z,0
2017-08-12T00:18:47.610Z,0
2017-08-12T00:19:47.900Z,0
2017-08-12T00:20:47.869Z,0
2017-08-12T00:21:47.246Z,0
2017-08-12T00:22:47.823Z,0
2017-08-12T00:23:47.262Z,0
2017-08-12T00:24:47.778Z,0
2017-08-12T00:25:47.453Z,0
2017-08-12T00:26:47.456Z,0
2017-08-12T00:27:47.731Z,0
2017-08-12T00:28:47.701Z,0
2017-08-12T00:29:47.721Z,0
2017-08-12T00:30:47.659Z,0
2017-08-12T00:31:47.386Z,0
2017-08-12T00:32:47.607Z,0
2017-08-12T00:33:47.582Z,0
2017-08-12T00:34:47.570Z,0
2017-08-12T00:35:47.553Z,0
2017-08-12T00:36:47.776Z,0
2017-08-12T00:37:47.507Z,0
2017-08-12T00:38:47.485Z,0
2017-08-12T00:39:47.456Z,0
2017-08-12T00:40:47.435Z,0
2017-08-12T00:41:47.422Z,0
2017-08-12T00:42:47.404Z,0
2017-08-12T00:43:47.419Z,0
2017-08-12T00:44:47.444Z,0
2017-08-12T00:45:47.329Z,0
2017-08-12T00:46:47.073Z,0
2017-08-12T00:47:47.340Z,0
2017-08-12T00:48:47.275Z,0
2017-08-12T00:49:47.254Z,0
2017-08-12T00:50:46.931Z,0
2017-08-12T00:51:47.207Z,0
2017-08-12T00:52:46.576Z,0
2017-08-12T00:53:47.211Z,0
2017-08-12T00:54:47.140Z,0
2017-08-12T00:55:47.125Z,0
2017-08-12T00:56:47.164Z,0
2017-08-12T00:57:47.079Z,0
2017-08-12T00:58:47.061Z,0
2017-08-12T00:59:47.033Z,0
2017-08-12T01:00:47.011Z,0
2017-08-12T01:01:46.699Z,0
2017-08-12T01:02:46.740Z,0
2017-08-12T01:03:47.195Z,0
2017-08-12T01:04:46.924Z,0
2017-08-12T01:05:46.914Z,0
2017-08-12T01:06:46.915Z,0
2017-08-12T01:07:46.910Z,0
2017-08-12T01:08:46.835Z,0
2017-08-12T01:09:46.815Z,0
2017-08-12T01:10:46.797Z,0
2017-08-12T01:11:46.478Z,0
2017-08-12T01:12:46.798Z,0
2017-08-12T01:13:46.728Z,0
2017-08-12T01:14:46.714Z,0
2017-08-12T01:15:46.691Z,0
2017-08-12T01:16:46.681Z,0
2017-08-12T01:17:46.646Z,0
2017-08-12T01:18:46.654Z,0
2017-08-12T01:19:46.607Z,0
2017-08-12T01:20:46.782Z,0
2017-08-12T01:21:46.266Z,0
2017-08-12T01:22:46.546Z,0
2017-08-12T01:23:46.521Z,0
2017-08-12T01:24:46.192Z,0
2017-08-12T01:25:46.172Z,0
2017-08-12T01:26:46.455Z,0
2017-08-12T01:27:46.487Z,0
2017-08-12T01:28:46.118Z,0
2017-08-12T01:29:46.400Z,0
2017-08-12T01:30:46.072Z,0
2017-08-12T01:31:46.346Z,0
2017-08-12T01:32:46.331Z,0
2017-08-12T01:33:46.303Z,0
2017-08-12T01:34:45.979Z,0
2017-08-12T01:35:45.960Z,0
2017-08-12T01:36:46.237Z,0
2017-08-12T01:37:46.228Z,0
2017-08-12T01:38:45.894Z,0
2017-08-12T01:39:45.874Z,0
2017-08-12T01:40:46.220Z,0
2017-08-12T01:41:46.137Z,0
2017-08-12T01:42:46.107Z,0
2017-08-12T01:43:46.096Z,0
2017-08-12T01:44:46.067Z,0
2017-08-12T01:45:46.047Z,0
2017-08-12T01:46:46.027Z,0
2017-08-12T01:47:46.005Z,0
2017-08-12T01:48:45.711Z,0
2017-08-12T01:49:45.757Z,0
2017-08-12T01:50:45.947Z,0
2017-08-12T01:51:45.923Z,0
2017-08-12T01:52:45.641Z,0
2017-08-12T01:53:45.876Z,0
2017-08-12T01:54:45.805Z,0
2017-08-12T01:55:45.829Z,0
2017-08-12T01:56:45.808Z,0
2017-08-12T01:57:45.841Z,0
2017-08-12T01:58:45.828Z,0
2017-08-12T01:59:45.439Z,0
2017-08-12T02:00:45.732Z,0
2017-08-12T02:01:45.698Z,0
2017-08-12T02:02:45.677Z,0
2017-08-12T02:03:45.662Z,0
2017-08-12T02:04:45.644Z,0
2017-08-12T02:05:45.617Z,0
2017-08-12T02:06:45.600Z,0
2017-08-12T02:07:45.577Z,0
2017-08-12T02:08:45.246Z,0
2017-08-12T02:09:45.585Z,0
2017-08-12T02:10:45.562Z,0
2017-08-12T02:11:45.550Z,0
2017-08-12T02:12:45.466Z,0
2017-08-12T02:13:45.441Z,0
2017-08-12T02:14:45.122Z,0
2017-08-12T02:15:45.408Z,0
2017-08-12T02:16:45.380Z,0
2017-08-12T02:17:45.413Z,0
2017-08-12T02:18:45.335Z,0
2017-08-12T02:19:45.368Z,0
2017-08-12T02:20:45.341Z,0
2017-08-12T02:21:45.272Z,0
2017-08-12T02:22:45.242Z,0
2017-08-12T02:23:45.281Z,0
2017-08-12T02:24:45.212Z,0
2017-08-12T02:25:44.905Z,0
2017-08-12T02:26:45.162Z,0
2017-08-12T02:27:45.151Z,0
2017-08-12T02:28:45.129Z,0
2017-08-12T02:29:44.794Z,0
2017-08-12T02:30:44.783Z,0
2017-08-12T02:31:45.054Z,0
2017-08-12T02:32:44.724Z,0
2017-08-12T02:33:45.013Z,0
2017-08-12T02:34:45.000Z,0
2017-08-12T02:35:44.972Z,0
2017-08-12T02:36:44.659Z,0
2017-08-12T02:37:44.919Z,0
2017-08-12T02:38:44.913Z,0
2017-08-12T02:39:44.890Z,0
2017-08-12T02:40:44.919Z,0
2017-08-12T02:41:44.832Z,0
2017-08-12T02:42:44.212Z,0
2017-08-12T02:43:44.795Z,0
2017-08-12T02:44:44.782Z,0
2017-08-12T02:45:44.779Z,0
2017-08-12T02:46:44.425Z,0
2017-08-12T02:47:44.710Z,0
2017-08-12T02:48:44.741Z,0
2017-08-12T02:49:44.664Z,0
2017-08-12T02:50:44.350Z,0
2017-08-12T02:51:44.683Z,0
2017-08-12T02:52:44.628Z,0
2017-08-12T02:53:44.589Z,0
2017-08-12T02:54:44.557Z,0
2017-08-12T02:55:44.536Z,0
2017-08-12T02:56:44.515Z,0
2017-08-12T02:57:44.509Z,0
2017-08-12T02:58:44.171Z,0
2017-08-12T02:59:44.454Z,0
2017-08-12T03:00:44.122Z,0
2017-08-12T03:01:44.110Z,0
2017-08-12T03:02:44.444Z,0
2017-08-12T03:03:44.380Z,0
2017-08-12T03:04:44.343Z,0
2017-08-12T03:05:44.328Z,0
2017-08-12T03:06:44.311Z,0
2017-08-12T03:07:44.278Z,0
2017-08-12T03:08:43.954Z,0
2017-08-12T03:09:44.239Z,0
2017-08-12T03:10:44.271Z,0
2017-08-12T03:11:43.887Z,0
2017-08-12T03:12:44.171Z,0
2017-08-12T03:13:44.192Z,0
2017-08-12T03:14:44.128Z,0
2017-08-12T03:15:44.111Z,0
2017-08-12T03:16:44.089Z,0
2017-08-12T03:17:44.068Z,0
2017-08-12T03:18:44.033Z,0
2017-08-12T03:19:44.022Z,0
2017-08-12T03:20:43.992Z,0
2017-08-12T03:21:43.973Z,0
2017-08-12T03:22:43.649Z,0
2017-08-12T03:23:43.931Z,0
2017-08-12T03:24:43.612Z,0
2017-08-12T03:25:43.884Z,0
2017-08-12T03:26:43.863Z,0
2017-08-12T03:27:43.850Z,0
2017-08-12T03:28:43.824Z,0
2017-08-12T03:29:43.802Z,0
2017-08-12T03:30:43.782Z,0
2017-08-12T03:31:43.456Z,0
2017-08-12T03:32:43.485Z,0
2017-08-12T03:33:43.714Z,0
2017-08-12T03:34:43.694Z,0
2017-08-12T03:35:43.672Z,0
2017-08-12T03:36:43.647Z,0
2017-08-12T03:37:43.684Z,0
2017-08-12T03:38:43.613Z,0
2017-08-12T03:39:43.591Z,0
2017-08-12T03:40:43.564Z,0
2017-08-12T03:41:43.544Z,0
2017-08-12T03:42:43.525Z,0
2017-08-12T03:43:43.499Z,0
2017-08-12T03:44:43.483Z,0
2017-08-12T03:45:43.150Z,0
2017-08-12T03:46:43.432Z,0
2017-08-12T03:47:43.407Z,0
2017-08-12T03:48:43.390Z,0
2017-08-12T03:49:43.367Z,0
2017-08-12T03:50:43.348Z,0
2017-08-12T03:51:43.328Z,0
2017-08-12T03:52:43.314Z,0
2017-08-12T03:53:43.286Z,0
2017-08-12T03:54:43.265Z,0
2017-08-12T03:55:43.236Z,0
2017-08-12T03:56:42.914Z,0
2017-08-12T03:57:43.199Z,0
2017-08-12T03:58:43.437Z,0
2017-08-12T03:59:43.157Z,0
2017-08-12T04:00:43.137Z,0
2017-08-12T04:01:42.809Z,0
2017-08-12T04:02:43.081Z,0
2017-08-12T04:03:43.062Z,0
2017-08-12T04:04:43.299Z,0
2017-08-12T04:05:43.018Z,0
2017-08-12T04:06:43.054Z,0
2017-08-12T04:07:42.986Z,0
2017-08-12T04:08:42.694Z,0
2017-08-12T04:09:42.939Z,0
2017-08-12T04:10:42.910Z,0
2017-08-12T04:11:42.894Z,0
2017-08-12T04:12:42.873Z,0
2017-08-12T04:13:42.852Z,5
2017-08-12T04:14:42.820Z,5
2017-08-12T04:15:42.809Z,5
2017-08-12T04:16:42.490Z,5
2017-08-12T04:17:42.765Z,5
2017-08-12T04:18:42.734Z,5
2017-08-12T04:19:42.759Z,5
2017-08-12T04:20:42.706Z,5
2017-08-12T04:21:42.680Z,5
2017-08-12T04:22:42.353Z,5
2017-08-12T04:23:42.629Z,5
2017-08-12T04:24:42.615Z,5
2017-08-12T04:25:42.295Z,5
2017-08-12T04:26:42.565Z,10
2017-08-12T04:27:42.545Z,10
2017-08-12T04:28:42.519Z,10
2017-08-12T04:29:42.500Z,10
2017-08-12T04:30:42.475Z,15
2017-08-12T04:31:42.458Z,15
2017-08-12T04:32:42.134Z,15
2017-08-12T04:33:42.360Z,15
2017-08-12T04:34:42.446Z,20
2017-08-12T04:35:42.365Z,20
2017-08-12T04:36:42.355Z,20
2017-08-12T04:37:42.327Z,25
2017-08-12T04:38:42.600Z,25
2017-08-12T04:39:42.286Z,30
2017-08-12T04:40:42.249Z,35
2017-08-12T04:41:42.286Z,35
2017-08-12T04:42:42.276Z,40
2017-08-12T04:43:41.897Z,40
2017-08-12T04:44:42.180Z,40
2017-08-12T04:45:42.207Z,40
2017-08-12T04:46:42.138Z,35
2017-08-12T04:47:42.154Z,35
2017-08-12T04:48:41.783Z,40
2017-08-12T04:49:42.066Z,40
2017-08-12T04:50:42.057Z,40
2017-08-12T04:51:42.032Z,40
2017-08-12T04:52:42.026Z,35
2017-08-12T04:53:41.383Z,40
2017-08-12T04:54:41.959Z,50
2017-08-12T04:55:41.939Z,55
2017-08-12T04:56:41.915Z,60
2017-08-12T04:57:41.899Z,60
2017-08-12T04:58:41.871Z,65
2017-08-12T04:59:41.854Z,65
2017-08-12T05:00:41.887Z,70
2017-08-12T05:01:41.821Z,80
2017-08-12T05:02:41.785Z,80
2017-08-12T05:03:41.469Z,75
2017-08-12T05:04:41.750Z,80
2017-08-12T05:05:41.731Z,90
2017-08-12T05:06:41.705Z,85
2017-08-12T05:07:41.674Z,70
2017-08-12T05:08:41.667Z,80
2017-08-12T05:09:41.634Z,85
2017-08-12T05:10:41.623Z,90
2017-08-12T05:11:41.598Z,85
2017-08-12T05:12:41.575Z,75
2017-08-12T05:13:41.553Z,80
2017-08-12T05:14:41.528Z,70
2017-08-12T05:15:41.504Z,70
2017-08-12T05:16:41.491Z,75
2017-08-12T05:17:41.471Z,80
2017-08-12T05:18:41.497Z,85
2017-08-12T05:19:41.468Z,85
2017-08-12T05:20:41.406Z,80
2017-08-12T05:21:41.077Z,75
2017-08-12T05:22:41.356Z,75
2017-08-12T05:23:41.393Z,75
2017-08-12T05:24:41.317Z,65
2017-08-12T05:25:41.295Z,65
2017-08-12T05:26:41.275Z,60
2017-08-12T05:27:41.322Z,55
2017-08-12T05:28:41.241Z,55
2017-08-12T05:29:41.212Z,55
2017-08-12T05:30:41.186Z,50
2017-08-12T05:31:41.164Z,50
2017-08-12T05:32:41.148Z,55
2017-08-12T05:33:40.817Z,55
2017-08-12T05:34:41.119Z,55
2017-08-12T05:35:40.787Z,55
2017-08-12T05:36:41.055Z,55
2017-08-12T05:37:40.744Z,60
2017-08-12T05:38:41.263Z,60
2017-08-12T05:39:41.009Z,60
2017-08-12T05:40:40.980Z,60
2017-08-12T05:41:40.959Z,60
2017-08-12T05:42:40.984Z,60
2017-08-12T05:43:41.213Z,55
2017-08-12T05:44:40.890Z,55
2017-08-12T05:45:40.874Z,50
2017-08-12T05:46:41.105Z,50
2017-08-12T05:47:40.859Z,50
2017-08-12T05:48:40.818Z,55
2017-08-12T05:49:40.821Z,60
2017-08-12T05:50:40.760Z,65
2017-08-12T05:51:40.743Z,60
2017-08-12T05:52:40.713Z,60
2017-08-12T05:53:40.748Z,70
2017-08-12T05:54:40.678Z,75
2017-08-12T05:55:40.662Z,80
2017-08-12T05:56:40.636Z,75
2017-08-12T05:57:40.603Z,70
2017-08-12T05:58:40.584Z,65
2017-08-12T05:59:40.565Z,70
2017-08-12T06:00:40.548Z,75
2017-08-12T06:01:40.525Z,80
2017-08-12T06:02:40.505Z,85
2017-08-12T06:03:40.172Z,90
2017-08-12T06:04:40.460Z,85
2017-08-12T06:05:40.437Z,95
2017-08-12T06:06:40.120Z,95
2017-08-12T06:07:40.391Z,100
2017-08-12T06:08:40.076Z,100
2017-08-12T06:09:40.409Z,100
2017-08-12T06:10:40.330Z,95
2017-08-12T06:11:40.335Z,95
2017-08-12T06:12:40.297Z,90
2017-08-12T06:13:40.321Z,90
2017-08-12T06:14:40.244Z,75
2017-08-12T06:15:40.217Z,70
2017-08-12T06:16:40.478Z,70
2017-08-12T06:17:39.583Z,65
2017-08-12T06:18:40.170Z,60
2017-08-12T06:19:39.843Z,60
2017-08-12T06:20:40.118Z,60
2017-08-12T06:21:40.140Z,55
2017-08-12T06:22:40.085Z,45
2017-08-12T06:23:40.060Z,45
2017-08-12T06:24:39.738Z,50
2017-08-12T06:25:39.763Z,45
2017-08-12T06:26:39.692Z,45
2017-08-12T06:27:39.970Z,45
2017-08-12T06:28:39.947Z,45
2017-08-12T06:29:39.621Z,50
2017-08-12T06:30:39.914Z,45
2017-08-12T06:31:39.930Z,40
2017-08-12T06:32:39.859Z,45
2017-08-12T06:33:39.840Z,50
2017-08-12T06:34:39.816Z,60
2017-08-12T06:35:39.551Z,65
2017-08-12T06:36:39.780Z,75
2017-08-12T06:37:39.760Z,85
2017-08-12T06:38:39.728Z,90
2017-08-12T06:39:39.724Z,90
2017-08-12T06:40:39.691Z,85
2017-08-12T06:41:39.668Z,75
2017-08-12T06:42:39.666Z,75
2017-08-12T06:43:39.923Z,80
2017-08-12T06:44:39.595Z,85
2017-08-12T06:45:39.576Z,85
2017-08-12T06:46:39.281Z,90
2017-08-12T06:47:39.535Z,100
2017-08-12T06:48:39.581Z,110
2017-08-12T06:49:39.203Z,105
2017-08-12T06:50:39.471Z,115
2017-08-12T06:51:39.448Z,110
2017-08-12T06:52:39.137Z,110
2017-08-12T06:53:39.104Z,110
2017-08-12T06:54:39.083Z,110
2017-08-12T06:55:39.472Z,100
2017-08-12T06:56:39.335Z,100
2017-08-12T06:57:39.327Z,100
2017-08-12T06:58:38.997Z,105
2017-08-12T06:59:39.530Z,105
2017-08-12T07:00:39.271Z,105
2017-08-12T07:01:39.226Z,105
2017-08-12T07:02:39.227Z,100
2017-08-12T07:03:39.197Z,95
2017-08-12T07:04:38.872Z,80
2017-08-12T07:05:39.147Z,90
2017-08-12T07:06:38.527Z,85
2017-08-12T07:07:39.112Z,95
2017-08-12T07:08:38.784Z,100
2017-08-12T07:09:39.083Z,100
2017-08-12T07:10:39.042Z,105
2017-08-12T07:11:39.017Z,110
2017-08-12T07:12:38.694Z,90
2017-08-12T07:13:38.985Z,85
2017-08-12T07:14:38.956Z,85
2017-08-12T07:15:38.954Z,90
2017-08-12T07:16:38.608Z,90
2017-08-12T07:17:39.142Z,90
2017-08-12T07:18:38.575Z,85
2017-08-12T07:19:38.851Z,90
2017-08-12T07:20:38.822Z,80
2017-08-12T07:21:38.497Z,75
2017-08-12T07:22:38.800Z,80
2017-08-12T07:23:38.756Z,70
2017-08-12T07:24:38.745Z,70
2017-08-12T07:25:38.727Z,60
2017-08-12T07:26:38.709Z,70
2017-08-12T07:27:38.673Z,75
2017-08-12T07:28:38.749Z,70
2017-08-12T07:29:38.679Z,65
2017-08-12T07:30:38.358Z,85
2017-08-12T07:31:38.585Z,85
2017-08-12T07:32:38.564Z,75
2017-08-12T07:33:38.555Z,65
2017-08-12T07:34:38.576Z,80
2017-08-12T07:35:37.900Z,90
2017-08-12T07:36:38.483Z,85
2017-08-12T07:37:38.464Z,70
2017-08-12T07:38:38.429Z,90
2017-08-12T07:39:38.375Z,90
2017-08-12T07:40:39.390Z,90
2017-08-12T07:41:38.374Z,110
2017-08-12T07:42:38.409Z,110
2017-08-12T07:43:38.336Z,115
2017-08-12T07:44:38.305Z,105
2017-08-12T07:45:38.296Z,95
2017-08-12T07:46:37.965Z,95
2017-08-12T07:47:38.242Z,80
2017-08-12T07:48:38.247Z,90
2017-08-12T07:49:38.193Z,100
2017-08-12T07:50:38.175Z,100
2017-08-12T07:51:38.159Z,100
2017-08-12T07:52:38.132Z,95
2017-08-12T07:53:38.122Z,100
2017-08-12T07:54:37.799Z,100
2017-08-12T07:55:38.072Z,90
2017-08-12T07:56:38.053Z,95
2017-08-12T07:57:38.034Z,100
2017-08-12T07:58:37.731Z,100
2017-08-12T07:59:38.047Z,90
2017-08-12T08:00:37.965Z,100
2017-08-12T08:01:37.943Z,115
2017-08-12T08:02:37.923Z,140
2017-08-12T08:03:37.900Z,135
2017-08-12T08:04:37.879Z,135
2017-08-12T08:05:37.849Z,135
2017-08-12T08:06:37.834Z,125
2017-08-12T08:07:37.813Z,145
2017-08-12T08:08:37.782Z,155
2017-08-12T08:09:37.785Z,160
2017-08-12T08:10:37.748Z,180
2017-08-12T08:11:37.725Z,185
2017-08-12T08:12:37.399Z,170
2017-08-12T08:13:37.696Z,155
2017-08-12T08:14:37.665Z,155
2017-08-12T08:15:37.642Z,170
2017-08-12T08:16:37.613Z,155
2017-08-12T08:17:37.599Z,145
2017-08-12T08:18:37.588Z,135
2017-08-12T08:19:37.605Z,125
2017-08-12T08:20:37.230Z,125
2017-08-12T08:21:37.514Z,120
2017-08-12T08:22:37.485Z,145
2017-08-12T08:23:37.468Z,165
2017-08-12T08:24:37.152Z,165
2017-08-12T08:25:37.448Z,180
2017-08-12T08:26:37.405Z,175
2017-08-12T08:27:37.386Z,170
2017-08-12T08:28:37.369Z,175
2017-08-12T08:29:37.329Z,160
2017-08-12T08:30:37.066Z,190
2017-08-12T08:31:37.338Z,185
2017-08-12T08:32:37.276Z,220
2017-08-12T08:33:37.246Z,205
2017-08-12T08:34:37.227Z,235
2017-08-12T08:35:37.220Z,225
2017-08-12T08:36:37.186Z,265
2017-08-12T08:37:37.163Z,305
2017-08-12T08:38:37.139Z,340
2017-08-12T08:39:37.137Z,320
2017-08-12T08:40:37.105Z,400
2017-08-12T08:41:37.078Z,390
2017-08-12T08:42:37.059Z,450
2017-08-12T08:43:37.048Z,415
2017-08-12T08:44:36.748Z,380
2017-08-12T08:45:37.002Z,360
2017-08-12T08:46:36.993Z,390
2017-08-12T08:47:36.957Z,385
2017-08-12T08:48:36.635Z,345
2017-08-12T08:49:36.915Z,370
2017-08-12T08:50:36.948Z,350
2017-08-12T08:51:36.876Z,405
2017-08-12T08:52:36.901Z,370
2017-08-12T08:53:36.834Z,380
2017-08-12T08:54:36.808Z,400
2017-08-12T08:55:36.795Z,425
2017-08-12T08:56:36.504Z,385
2017-08-12T08:57:36.753Z,485
2017-08-12T08:58:36.731Z,435
2017-08-12T08:59:36.708Z,480
2017-08-12T09:00:36.689Z,475
2017-08-12T09:01:36.659Z,545
2017-08-12T09:02:36.647Z,420
2017-08-12T09:03:36.623Z,530
2017-08-12T09:04:36.596Z,515
2017-08-12T09:05:36.281Z,465
2017-08-12T09:06:36.559Z,485
2017-08-12T09:07:36.542Z,440
2017-08-12T09:08:36.217Z,385
2017-08-12T09:09:36.242Z,335
2017-08-12T09:10:36.471Z,395
2017-08-12T09:11:36.461Z,380
2017-08-12T09:12:36.434Z,300
2017-08-12T09:13:36.405Z,325
2017-08-12T09:14:36.347Z,285
2017-08-12T09:15:36.335Z,205
2017-08-12T09:16:36.457Z,270
2017-08-12T09:17:36.335Z,290
2017-08-12T09:18:36.311Z,240
2017-08-12T09:19:36.288Z,235
2017-08-12T09:20:36.025Z,290
2017-08-12T09:21:36.249Z,255
2017-08-12T09:22:36.242Z,260
2017-08-12T09:23:36.224Z,285
2017-08-12T09:24:35.934Z,300
2017-08-12T09:25:36.174Z,400
2017-08-12T09:26:35.849Z,325
2017-08-12T09:27:36.132Z,465
2017-08-12T09:28:36.113Z,390
2017-08-12T09:29:35.787Z,310
2017-08-12T09:30:36.065Z,290
2017-08-12T09:31:36.044Z,270
2017-08-12T09:32:36.012Z,275
2017-08-12T09:33:36.012Z,250
2017-08-12T09:34:36.032Z,260
2017-08-12T09:35:35.711Z,295
2017-08-12T09:36:35.963Z,260
2017-08-12T09:37:35.630Z,240
2017-08-12T09:38:35.903Z,265
2017-08-12T09:39:35.583Z,225
2017-08-12T09:40:35.630Z,230
2017-08-12T09:41:35.847Z,195
2017-08-12T09:42:35.810Z,205
2017-08-12T09:43:35.506Z,190
2017-08-12T09:44:35.474Z,195
2017-08-12T09:45:35.755Z,180
2017-08-12T09:46:35.727Z,200
2017-08-12T09:47:35.706Z,175
2017-08-12T09:48:35.688Z,175
2017-08-12T09:49:35.669Z,185
2017-08-12T09:50:35.644Z,175
2017-08-12T09:51:35.636Z,190
2017-08-12T09:52:35.308Z,210
2017-08-12T09:53:35.587Z,220
2017-08-12T09:54:35.563Z,195
2017-08-12T09:55:35.548Z,200
2017-08-12T09:56:35.225Z,200
2017-08-12T09:57:35.503Z,160
2017-08-12T09:58:35.234Z,150
2017-08-12T09:59:35.462Z,150
2017-08-12T10:00:35.437Z,155
2017-08-12T10:01:35.423Z,175
2017-08-12T10:02:35.392Z,165
2017-08-12T10:03:35.084Z,160
2017-08-12T10:04:35.061Z,180
2017-08-12T10:05:35.351Z,180
2017-08-12T10:06:35.016Z,200
2017-08-12T10:07:35.293Z,185
2017-08-12T10:08:35.282Z,180
2017-08-12T10:09:34.949Z,215
2017-08-12T10:10:34.635Z,230
2017-08-12T10:11:34.914Z,205
2017-08-12T10:12:34.589Z,180
2017-08-12T10:13:35.163Z,185
2017-08-12T10:14:35.149Z,240
2017-08-12T10:15:35.127Z,240
2017-08-12T10:16:35.106Z,240
2017-08-12T10:17:34.477Z,235
2017-08-12T10:18:35.066Z,260
2017-08-12T10:19:35.046Z,275
2017-08-12T10:20:35.019Z,275
2017-08-12T10:21:34.996Z,255
2017-08-12T10:22:34.379Z,225
2017-08-12T10:23:34.954Z,190
2017-08-12T10:24:34.641Z,195
2017-08-12T10:25:34.927Z,245
2017-08-12T10:26:34.598Z,235
2017-08-12T10:27:34.889Z,260
2017-08-12T10:28:34.558Z,220
2017-08-12T10:29:34.530Z,240
2017-08-12T10:30:34.767Z,280
2017-08-12T10:31:34.490Z,310
2017-08-12T10:32:34.475Z,290
2017-08-12T10:33:34.504Z,290
2017-08-12T10:34:34.440Z,340
2017-08-12T10:35:34.409Z,290
2017-08-12T10:36:34.430Z,270
2017-08-12T10:37:34.676Z,240
2017-08-12T10:38:34.640Z,200
2017-08-12T10:39:34.624Z,235
2017-08-12T10:40:34.597Z,195
2017-08-12T10:41:34.649Z,215
2017-08-12T10:42:34.564Z,190
2017-08-12T10:43:33.937Z,195
2017-08-12T10:44:34.518Z,185
2017-08-12T10:45:34.197Z,170
2017-08-12T10:46:34.487Z,185
2017-08-12T10:47:34.461Z,200
2017-08-12T10:48:34.435Z,165
2017-08-12T10:49:34.528Z,170
2017-08-12T10:50:34.401Z,180
2017-08-12T10:51:34.384Z,140
2017-08-12T10:52:34.357Z,165
2017-08-12T10:53:33.737Z,160
2017-08-12T10:54:34.362Z,185
2017-08-12T10:55:33.989Z,185
2017-08-12T10:56:34.281Z,200
2017-08-12T10:57:33.952Z,215
2017-08-12T10:58:34.224Z,210
2017-08-12T10:59:34.210Z,180
2017-08-12T11:00:34.241Z,235
2017-08-12T11:01:35.057Z,230
2017-08-12T11:02:34.145Z,210
2017-08-12T11:03:34.181Z,190
2017-08-12T11:04:34.149Z,210
2017-08-12T11:05:34.082Z,195
2017-08-12T11:06:33.765Z,195
2017-08-12T11:07:34.046Z,180
2017-08-12T11:08:33.728Z,205
2017-08-12T11:09:33.696Z,220
2017-08-12T11:10:34.029Z,175
2017-08-12T11:11:33.961Z,180
2017-08-12T11:12:33.944Z,140
2017-08-12T11:13:33.915Z,150
2017-08-12T11:14:33.894Z,180
2017-08-12T11:15:33.577Z,205
2017-08-12T11:16:33.554Z,205
2017-08-12T11:17:33.841Z,180
2017-08-12T11:18:33.828Z,180
2017-08-12T11:19:33.806Z,155
2017-08-12T11:20:33.817Z,155
2017-08-12T11:21:33.757Z,150
2017-08-12T11:22:33.725Z,155
2017-08-12T11:23:33.703Z,170
2017-08-12T11:24:33.699Z,190
2017-08-12T11:25:33.724Z,155
2017-08-12T11:26:33.652Z,160
2017-08-12T11:27:33.872Z,140
2017-08-12T11:28:33.605Z,155
2017-08-12T11:29:33.629Z,160
2017-08-12T11:30:33.273Z,155
2017-08-12T11:31:33.547Z,190
2017-08-12T11:32:33.228Z,175
2017-08-12T11:33:33.209Z,190
2017-08-12T11:34:33.480Z,185
2017-08-12T11:35:33.509Z,180
2017-08-12T11:36:33.142Z,180
2017-08-12T11:37:33.142Z,180
2017-08-12T11:38:33.403Z,220
2017-08-12T11:39:33.367Z,240
2017-08-12T11:40:33.373Z,235
2017-08-12T11:41:33.330Z,275
2017-08-12T11:42:33.317Z,270
2017-08-12T11:43:33.313Z,335
2017-08-12T11:44:33.277Z,265
2017-08-12T11:45:33.276Z,260
2017-08-12T11:46:33.233Z,285
2017-08-12T11:47:33.223Z,265
2017-08-12T11:48:33.191Z,245
2017-08-12T11:49:33.167Z,235
2017-08-12T11:50:32.554Z,290
2017-08-12T11:51:32.848Z,255
2017-08-12T11:52:32.816Z,280
2017-08-12T11:53:32.485Z,260
2017-08-12T11:54:33.070Z,250
2017-08-12T11:55:33.055Z,255
2017-08-12T11:56:32.725Z,255
2017-08-12T11:57:33.028Z,205
2017-08-12T11:58:32.981Z,180
2017-08-12T11:59:33.210Z,180
2017-08-12T12:00:32.944Z,215
2017-08-12T12:01:32.619Z,210
2017-08-12T12:02:32.923Z,220
2017-08-12T12:03:32.879Z,215
2017-08-12T12:04:32.868Z,190
2017-08-12T12:05:32.842Z,180
2017-08-12T12:06:32.823Z,170
2017-08-12T12:07:32.838Z,170
2017-08-12T12:08:32.496Z,165
2017-08-12T12:09:32.755Z,180
2017-08-12T12:10:32.744Z,180
2017-08-12T12:11:32.721Z,220
2017-08-12T12:12:32.751Z,235
2017-08-12T12:13:32.736Z,210
2017-08-12T12:14:32.652Z,185
2017-08-12T12:15:32.637Z,170
2017-08-12T12:16:32.618Z,180
2017-08-12T12:17:32.587Z,185
2017-08-12T12:18:32.270Z,200
2017-08-12T12:19:32.553Z,210
2017-08-12T12:20:32.534Z,195
2017-08-12T12:21:32.522Z,160
2017-08-12T12:22:32.195Z,160
2017-08-12T12:23:32.523Z,160
2017-08-12T12:24:32.157Z,145
2017-08-12T12:25:32.485Z,135
2017-08-12T12:26:31.815Z,120
2017-08-12T12:27:32.389Z,140
2017-08-12T12:28:32.368Z,165
2017-08-12T12:29:32.363Z,140
2017-08-12T12:30:32.323Z,160
2017-08-12T12:31:32.306Z,175
2017-08-12T12:32:31.679Z,180
2017-08-12T12:33:32.268Z,220
2017-08-12T12:34:32.253Z,240
2017-08-12T12:35:32.222Z,260
2017-08-12T12:36:32.198Z,235
2017-08-12T12:37:31.881Z,215
2017-08-12T12:38:32.160Z,230
2017-08-12T12:39:32.153Z,265
2017-08-12T12:40:32.135Z,230
2017-08-12T12:41:32.104Z,230
2017-08-12T12:42:32.077Z,235
2017-08-12T12:43:32.051Z,235
2017-08-12T12:44:32.038Z,195
2017-08-12T12:45:32.019Z,175
2017-08-12T12:46:31.992Z,215
2017-08-12T12:47:31.971Z,190
2017-08-12T12:48:31.963Z,180
2017-08-12T12:49:31.936Z,165
2017-08-12T12:50:31.646Z,145
2017-08-12T12:51:31.600Z,175
2017-08-12T12:52:31.883Z,215
2017-08-12T12:53:31.555Z,270
2017-08-12T12:54:31.530Z,225
2017-08-12T12:55:31.821Z,205
2017-08-12T12:56:31.851Z,180
2017-08-12T12:57:31.769Z,205
2017-08-12T12:58:31.756Z,190
2017-08-12T12:59:31.426Z,165
2017-08-12T13:00:31.719Z,155
2017-08-12T13:01:31.698Z,155
2017-08-12T13:02:31.682Z,170
2017-08-12T13:03:31.654Z,155
2017-08-12T13:04:31.630Z,165
2017-08-12T13:05:31.609Z,160
2017-08-12T13:06:31.589Z,160
2017-08-12T13:07:31.274Z,175
2017-08-12T13:08:30.946Z,195
2017-08-12T13:09:31.531Z,225
2017-08-12T13:10:31.526Z,190
2017-08-12T13:11:31.501Z,180
2017-08-12T13:12:31.178Z,160
2017-08-12T13:13:31.449Z,150
2017-08-12T13:14:31.123Z,150
2017-08-12T13:15:31.209Z,155
2017-08-12T13:16:31.390Z,160
2017-08-12T13:17:31.374Z,185
2017-08-12T13:18:31.347Z,175
2017-08-12T13:19:31.344Z,160
2017-08-12T13:20:31.319Z,165
2017-08-12T13:21:30.993Z,150
2017-08-12T13:22:30.970Z,165
2017-08-12T13:23:31.249Z,170
2017-08-12T13:24:31.237Z,160
2017-08-12T13:25:31.209Z,140
2017-08-12T13:26:31.189Z,130
2017-08-12T13:27:31.171Z,155
2017-08-12T13:28:31.143Z,180
2017-08-12T13:29:30.825Z,150
2017-08-12T13:30:31.088Z,150
2017-08-12T13:31:31.079Z,130
2017-08-12T13:32:31.078Z,145
2017-08-12T13:33:31.046Z,180
2017-08-12T13:34:30.729Z,195
2017-08-12T13:35:31.046Z,180
2017-08-12T13:36:30.685Z,170
2017-08-12T13:37:30.657Z,195
2017-08-12T13:38:30.947Z,165
2017-08-12T13:39:30.926Z,165
2017-08-12T13:40:30.904Z,135
2017-08-12T13:41:30.873Z,160
2017-08-12T13:42:30.863Z,155
2017-08-12T13:43:30.248Z,180
2017-08-12T13:44:30.842Z,175
2017-08-12T13:45:30.493Z,200
2017-08-12T13:46:30.840Z,180
2017-08-12T13:47:30.777Z,250
2017-08-12T13:48:30.737Z,270
2017-08-12T13:49:30.433Z,310
2017-08-12T13:50:30.700Z,350
2017-08-12T13:51:30.731Z,380
2017-08-12T13:52:30.669Z,350
2017-08-12T13:53:30.354Z,345
2017-08-12T13:54:30.647Z,345
2017-08-12T13:55:30.642Z,340
2017-08-12T13:56:30.578Z,340
2017-08-12T13:57:30.267Z,360
2017-08-12T13:58:30.552Z,355
2017-08-12T13:59:30.532Z,395
2017-08-12T14:00:30.197Z,315
2017-08-12T14:01:30.482Z,295
2017-08-12T14:02:30.461Z,285
2017-08-12T14:03:30.165Z,230
2017-08-12T14:04:30.419Z,280
2017-08-12T14:05:30.101Z,310
2017-08-12T14:06:30.390Z,245
2017-08-12T14:07:30.111Z,160
2017-08-12T14:08:30.340Z,130
2017-08-12T14:09:30.333Z,120
2017-08-12T14:10:30.296Z,140